Sunday, May 19, 2019 (11:31 UTC)
OPMET DATA
 
Terminal Aerodrome Forecast (TAF) and METAR
TAFs are issued by Aviation Meteorological Office, for Abu Dhabi (OMAA), Bateen (OMAD), Al Ain (OMAL), Dubai (OMDB), Al Maktoum (OMDW), Sharjah (OMSJ), Ras Al Khaimah (OMRK) and Fujairah (OMFJ) airports. These TAFs are issued every 6 hours and are valid for a 30 hour period. METARs (Aviation Routine Weather Reports) are updated hourly.
Show ICAO codes
Select OPMET type:        SEARCH   PRINT
Aviation Meteorology - National Center of Meteorology (NCM)
Telephone: +971 2 5757346 / 5053676
Email: metweb@adiamet.gov.ae
Website: www.avmet.ae
METAR OMAA 191100Z 12012G24KT 090V150 5000 DU NSC 36/16 Q1006 TEMPO 12020G30KT 1500 BLDU=
METAR OMAD 191100Z 11011KT 060V130 8000 NSC 37/15 Q1005 TEMPO 12015G25KT 4000 BLDU=
METAR OMAL 191100Z 18017KT 5000 TS BLDU FEW040CB SCT045 31/17 Q1009 WS ALL RWY TEMPO VRB28G40KT 1500 TSRA=
METAR OMDB 191100Z 34011KT 300V020 CAVOK 36/18 Q1006 NOSIG=
METAR OMDW 191100Z 01006KT 290V080 CAVOK 36/16 Q1007 TEMPO 18020G30KT 1500 BLDU=
METAR OMFJ 191100Z 34008KT 310V030 8000 BKN030 29/19 Q1007 RETSRA RMK A2976=
METAR OMSJ 191100Z 34009KT 330V040 CAVOK 36/16 Q1006=
METAR OMRK 191100Z 36011KT 330V040 9999 FEW040 37/15 Q1006 A2973=
METAR OTBD 191100Z 02015KT CAVOK 32/18 Q1006 NOSIG=
METAR OTHH 191100Z 02017KT CAVOK 31/19 Q1006 NOSIG=
METAR OBBI 191100Z 08010KT CAVOK 31/20 Q1007 NOSIG=
METAR OEDF 191100Z 13011KT CAVOK 36/12 Q1006 NOSIG=
METAR OEDR 191100Z 11010KT CAVOK 34/16 Q1005 NOSIG=
METAR OEJN 191100Z 28010KT CAVOK 34/22 Q1007 NOSIG=
METAR OEMA 191100Z 33008KT CAVOK 37/M04 Q1010 NOSIG=
METAR OEPA 191100Z 00000KT CAVOK 39/18 Q1006 NOSIG=
METAR OERF 191100Z 32002KT CAVOK 39/M01 Q1007=
METAR OERK 191100Z 04003KT 8000 NSC 37/04 Q1009 NOSIG=
METAR OERR 191100Z 35004KT CAVOK 33/05 Q1009 NOSIG=
METAR OERY NIL=
METAR OESH 191100Z 21007KT 8000 FEW040 34/12 Q1011 NOSIG=
METAR OETB 191100Z 07005KT CAVOK 32/M02 Q1012 NOSIG=
METAR OETF 191100Z 18004KT 9999 SCT025 30/07 Q1018 NOSIG=
METAR OETR 191100Z 26006KT CAVOK 31/00 Q1012=
METAR OEWD 191100Z 22010KT CAVOK 36/13 Q1009=
METAR OEWJ 191100Z 27011KT CAVOK 29/23 Q1007 NOSIG=
METAR OEYN 191100Z 20006KT 9999 FEW030 34/23 Q1005 NOSIG=
METAR OKBK 191100Z 14019KT 5000 -BLDU NSC 36/16 Q1005 NOSIG=
METAR OOMS 191050Z 06014KT 9999 FEW025 SCT100 BKN250 35/21 Q1005 NOSIG=
METAR OOSA 191050Z 18016KT 9999 SCT020 33/26 Q1009 NOSIG=
METAR OYSN NIL=
METAR OYAA NIL=
 
Sunday, May 19, 2019 (11:31 UTC)